Time;durP1;ratioP1;P1;durP2;ratioP2;P2;SDS_P1;SDS_P2;PMS_P1;PMS_P2;Temp;Humidity;BMP_temperature;BMP_pressure;BME280_temperature;BME280_humidity;BME280_pressure;Samples;Min_cycle;Max_cycle;Signal;HPM_P1;HPM_P2
2022/06/08 00:00:19;;;;;;;4.07;3.77;;;;;;;12.04;100.00;96774.69;4852259;29;20245;-55
2022/06/08 00:02:53;;;;;;;4.20;3.90;;;;;;;11.97;100.00;96782.66;4847522;29;20249;-53
2022/06/08 00:05:21;;;;;;;3.90;3.70;;;;;;;11.90;100.00;96785.28;4851160;29;20325;-56
2022/06/08 00:07:50;;;;;;;4.30;4.10;;;;;;;11.92;100.00;96774.44;4851728;29;20222;-56
2022/06/08 00:10:19;;;;;;;4.20;4.00;;;;;;;11.94;100.00;96775.88;4833072;29;20228;-55
2022/06/08 00:12:47;;;;;;;4.90;4.50;;;;;;;11.95;100.00;96780.19;4804229;29;20242;-53
2022/06/08 00:15:21;;;;;;;4.57;4.30;;;;;;;11.85;100.00;96775.25;4851415;29;20222;-53
2022/06/08 00:17:52;;;;;;;4.83;4.43;;;;;;;11.80;100.00;96776.91;4848721;29;20362;-52
2022/06/08 00:20:20;;;;;;;3.97;3.77;;;;;;;11.67;100.00;96767.06;4835455;29;20663;-55
2022/06/08 00:22:50;;;;;;;4.93;4.63;;;;;;;11.89;100.00;96765.06;4853326;29;20240;-52
2022/06/08 00:25:18;;;;;;;4.63;4.20;;;;;;;11.84;100.00;96762.22;4832474;29;20835;-56
2022/06/08 00:27:46;;;;;;;5.03;4.63;;;;;;;11.69;100.00;96762.38;4807991;29;20304;-51
2022/06/08 00:30:14;;;;;;;4.70;4.40;;;;;;;11.69;100.00;96768.50;4850108;29;20333;-57
2022/06/08 00:32:42;;;;;;;4.20;4.00;;;;;;;11.71;100.00;96763.78;4852982;29;20842;-53
2022/06/08 00:35:11;;;;;;;4.40;3.97;;;;;;;11.82;100.00;96762.41;4835354;29;20324;-58
2022/06/08 00:37:39;;;;;;;4.60;4.10;;;;;;;12.06;100.00;96759.38;4851889;29;20221;-52
2022/06/08 00:40:11;;;;;;;4.10;3.90;;;;;;;11.88;100.00;96758.13;4849164;29;20794;-56
2022/06/08 00:42:39;;;;;;;4.87;4.57;;;;;;;11.81;100.00;96768.72;4789101;29;20893;-52
2022/06/08 00:45:10;;;;;;;4.90;4.60;;;;;;;11.79;100.00;96772.63;4826023;29;20396;-57
2022/06/08 00:47:42;;;;;;;4.23;4.03;;;;;;;11.79;100.00;96781.38;4851410;29;20325;-51
2022/06/08 00:50:14;;;;;;;5.20;4.70;;;;;;;11.96;100.00;96781.00;4846598;29;20310;-56
2022/06/08 00:52:42;;;;;;;4.87;4.57;;;;;;;12.16;100.00;96778.41;4824844;29;20275;-52
2022/06/08 00:55:14;;;;;;;4.50;4.20;;;;;;;12.09;100.00;96769.59;4845961;29;20241;-56
2022/06/08 00:57:47;;;;;;;4.03;3.73;;;;;;;12.11;100.00;96762.22;4812558;29;20616;-55
2022/06/08 01:00:18;;;;;;;4.93;3.80;;;;;;;12.18;100.00;96763.06;4837658;29;20666;-54
2022/06/08 01:02:47;;;;;;;3.97;3.63;;;;;;;12.16;100.00;96757.97;4849051;29;20238;-53
2022/06/08 01:05:25;;;;;;;5.10;4.23;;;;;;;12.09;100.00;96764.28;4844799;29;20248;-51
2022/06/08 01:07:55;;;;;;;4.07;3.87;;;;;;;12.07;100.00;96761.84;4827792;29;20209;-57
2022/06/08 01:10:26;;;;;;;3.50;3.30;;;;;;;12.14;100.00;96762.66;4846807;29;20325;-53
2022/06/08 01:12:56;;;;;;;3.87;3.67;;;;;;;12.13;100.00;96761.03;4824398;29;20257;-56
2022/06/08 01:15:28;;;;;;;4.10;3.80;;;;;;;12.28;100.00;96762.66;4796531;29;20237;-50
2022/06/08 01:17:56;;;;;;;4.37;4.03;;;;;;;12.34;100.00;96764.50;4846756;29;20214;-57
2022/06/08 01:20:25;;;;;;;4.07;3.87;;;;;;;12.43;100.00;96759.78;4845876;29;20213;-55
2022/06/08 01:22:54;;;;;;;3.97;3.67;;;;;;;12.43;100.00;96757.94;4824678;29;20233;-56
2022/06/08 01:25:23;;;;;;;3.90;3.70;;;;;;;12.38;100.00;96760.41;4843796;29;20222;-53
2022/06/08 01:28:10;;;;;;;4.97;4.57;;;;;;;12.44;100.00;96756.09;4825754;29;20714;-56
2022/06/08 01:30:45;;;;;;;4.43;4.20;;;;;;;12.44;100.00;96753.44;4820265;29;20351;-57
2022/06/08 01:33:44;;;;;;;4.17;3.97;;;;;;;12.46;100.00;96754.03;4851374;29;20241;-51
2022/06/08 01:36:25;;;;;;;4.13;3.70;;;;;;;12.44;100.00;96756.09;4851223;29;20210;-54
2022/06/08 01:39:03;;;;;;;4.80;4.10;;;;;;;12.47;100.00;96742.41;4827689;29;20237;-52
2022/06/08 01:42:07;;;;;;;4.50;3.80;;;;;;;12.55;100.00;96742.19;4849491;29;20269;-56
2022/06/08 01:47:58;;;;;;;3.80;3.60;;;;;;;12.47;100.00;96736.28;4843304;29;20591;-55
2022/06/08 01:50:41;;;;;;;5.23;4.83;;;;;;;12.64;100.00;96729.47;4849456;29;20623;-53
2022/06/08 01:53:17;;;;;;;4.63;4.33;;;;;;;12.51;100.00;96735.66;4804033;29;20261;-51
2022/06/08 01:55:49;;;;;;;3.90;3.47;;;;;;;12.44;100.00;96733.00;4848992;29;20265;-56
2022/06/08 01:58:21;;;;;;;3.97;3.77;;;;;;;12.46;100.00;96730.13;4848950;29;20294;-51
2022/06/08 02:00:54;;;;;;;4.40;4.10;;;;;;;12.60;100.00;96728.28;4801640;29;20345;-53
2022/06/08 02:03:25;;;;;;;4.43;4.10;;;;;;;12.53;100.00;96722.16;4851834;29;20398;-49
2022/06/08 02:05:58;;;;;;;4.33;4.03;;;;;;;12.36;100.00;96719.94;4849845;29;20301;-53
2022/06/08 02:08:34;;;;;;;4.53;4.23;;;;;;;12.22;100.00;96719.16;4799020;29;20804;-58
2022/06/08 02:11:09;;;;;;;4.07;3.73;;;;;;;12.40;100.00;96717.69;4852373;29;20225;-57
2022/06/08 02:13:41;;;;;;;5.13;4.50;;;;;;;12.49;100.00;96705.81;4848095;29;20476;-56
2022/06/08 02:16:14;;;;;;;5.00;4.70;;;;;;;12.48;100.00;96708.69;4804394;29;20715;-54
2022/06/08 02:18:45;;;;;;;3.73;3.53;;;;;;;12.41;100.00;96706.88;4857978;29;20348;-58
2022/06/08 02:21:18;;;;;;;4.50;4.20;;;;;;;12.26;100.00;96707.09;4852221;29;20730;-53
2022/06/08 02:23:49;;;;;;;4.23;3.83;;;;;;;12.29;100.00;96708.50;4802069;29;20308;-57
2022/06/08 02:26:23;;;;;;;4.93;4.53;;;;;;;12.35;100.00;96710.34;4848598;29;20214;-54
2022/06/08 02:28:55;;;;;;;6.57;3.87;;;;;;;12.39;100.00;96706.25;4850043;29;20332;-56
2022/06/08 02:31:26;;;;;;;3.97;3.77;;;;;;;12.41;100.00;96708.69;4802423;29;20287;-53
2022/06/08 02:36:48;;;;;;;3.90;3.60;;;;;;;12.42;100.00;96707.66;4847296;29;20217;-57
2022/06/08 02:39:21;;;;;;;4.63;3.40;;;;;;;12.43;100.00;96702.16;4814779;29;20218;-50
2022/06/08 02:41:53;;;;;;;3.80;3.60;;;;;;;12.43;100.00;96706.63;4847910;29;20238;-55
2022/06/08 02:44:25;;;;;;;4.07;3.87;;;;;;;12.33;100.00;96709.75;4848533;29;20789;-51
2022/06/08 02:47:00;;;;;;;4.70;4.17;;;;;;;12.16;100.00;96707.50;4802165;29;20328;-52
2022/06/08 02:49:28;;;;;;;3.50;3.30;;;;;;;12.23;100.00;96702.19;4847569;29;20587;-55
2022/06/08 02:52:05;;;;;;;4.40;4.10;;;;;;;12.35;100.00;96701.56;4851572;29;20245;-53
2022/06/08 02:54:33;;;;;;;4.10;3.70;;;;;;;12.08;100.00;96699.75;4798675;29;20672;-57
2022/06/08 02:57:08;;;;;;;3.80;3.60;;;;;;;11.97;100.00;96701.16;4855422;29;20800;-57
2022/06/08 02:59:44;;;;;;;3.60;3.40;;;;;;;11.86;100.00;96699.91;4846975;29;20923;-48
2022/06/08 03:02:16;;;;;;;5.43;3.90;;;;;;;11.68;100.00;96700.50;4830766;29;20371;-54
2022/06/08 03:04:50;;;;;;;4.00;3.70;;;;;;;11.58;100.00;96708.91;4841133;29;20677;-57
2022/06/08 03:07:21;;;;;;;4.07;3.87;;;;;;;11.73;100.00;96705.22;4851239;29;20245;-52
2022/06/08 03:09:49;;;;;;;3.80;3.60;;;;;;;11.69;100.00;96704.00;4803011;29;20979;-53
2022/06/08 03:12:23;;;;;;;4.30;4.00;;;;;;;11.82;100.00;96701.34;4847423;29;20333;-55
2022/06/08 03:14:52;;;;;;;4.17;3.97;;;;;;;11.82;100.00;96696.03;4816187;29;20237;-57
2022/06/08 03:17:26;;;;;;;3.73;3.53;;;;;;;11.81;100.00;96694.41;4850464;29;20755;-55
2022/06/08 03:19:55;;;;;;;3.43;3.33;;;;;;;11.82;100.00;96704.00;4798302;29;20417;-57
2022/06/08 03:22:31;;;;;;;4.10;3.70;;;;;;;11.81;100.00;96698.91;4827325;29;20446;-54
2022/06/08 03:25:00;;;;;;;3.90;3.70;;;;;;;11.64;100.00;96709.09;4780448;29;20493;-56
2022/06/08 03:27:29;;;;;;;3.97;3.77;;;;;;;11.56;100.00;96716.25;4851437;29;20695;-50
2022/06/08 03:29:58;;;;;;;4.07;3.77;;;;;;;11.48;100.00;96721.72;4806681;29;20911;-56
2022/06/08 03:32:26;;;;;;;4.50;4.10;;;;;;;11.43;100.00;96721.50;4852570;29;20248;-54
2022/06/08 03:34:54;;;;;;;4.17;3.97;;;;;;;11.41;100.00;96739.44;4797613;29;20594;-58
2022/06/08 03:37:22;;;;;;;4.90;4.50;;;;;;;11.39;100.00;96737.03;4851206;29;20762;-57
2022/06/08 03:39:51;;;;;;;3.93;3.73;;;;;;;11.50;100.00;96735.59;4800619;29;20533;-55
2022/06/08 03:42:19;;;;;;;4.20;4.00;;;;;;;11.43;100.00;96727.63;4848504;29;20317;-56
2022/06/08 03:44:52;;;;;;;4.13;3.83;;;;;;;11.29;100.00;96728.59;4809931;29;20210;-52
2022/06/08 03:47:24;;;;;;;4.07;3.67;;;;;;;11.38;100.00;96731.91;4857121;29;20265;-56
2022/06/08 03:49:53;;;;;;;4.87;4.47;;;;;;;11.48;100.00;96739.47;4805366;29;20225;-56
2022/06/08 03:52:24;;;;;;;4.97;4.57;;;;;;;11.48;100.00;96737.63;4853170;29;20748;-56
2022/06/08 03:54:56;;;;;;;4.10;3.90;;;;;;;11.49;100.00;96738.47;4823222;29;20557;-54
2022/06/08 03:57:25;;;;;;;5.15;4.85;;;;;;;11.55;100.00;96737.66;4822168;29;20550;-55
2022/06/08 03:59:55;;;;;;;4.57;4.23;;;;;;;11.60;100.00;96729.09;4800940;29;20729;-55
2022/06/08 04:02:24;;;;;;;4.67;4.23;;;;;;;11.50;100.00;96737.44;4849145;29;20421;-53
2022/06/08 04:04:52;;;;;;;4.83;4.43;;;;;;;11.62;100.00;96742.97;4814334;29;20226;-57
2022/06/08 04:07:20;;;;;;;4.80;4.50;;;;;;;11.72;100.00;96730.94;4851012;29;20241;-57
2022/06/08 04:09:49;;;;;;;4.60;4.30;;;;;;;11.65;100.00;96726.66;4849312;29;20210;-56
2022/06/08 04:12:22;;;;;;;5.00;4.50;;;;;;;11.51;100.00;96739.88;4808340;29;20895;-53
2022/06/08 04:14:51;;;;;;;4.80;4.40;;;;;;;11.48;100.00;96739.47;4834888;29;20217;-53
2022/06/08 04:17:21;;;;;;;4.13;3.93;;;;;;;11.49;100.00;96739.25;4821025;29;20734;-56
2022/06/08 04:19:49;;;;;;;5.03;4.53;;;;;;;11.40;100.00;96729.88;4806477;29;20279;-55
2022/06/08 04:22:19;;;;;;;5.00;4.60;;;;;;;11.49;100.00;96733.16;4847985;29;20503;-57
2022/06/08 04:24:47;;;;;;;4.10;3.90;;;;;;;11.48;100.00;96736.84;4852306;29;20217;-57
2022/06/08 04:27:18;;;;;;;4.47;4.07;;;;;;;11.59;100.00;96741.53;4803616;29;20324;-54
2022/06/08 04:29:48;;;;;;;8.37;6.90;;;;;;;11.61;100.00;96728.09;4833785;29;20667;-57
2022/06/08 04:32:16;;;;;;;5.37;5.03;;;;;;;11.65;100.00;96721.34;4816619;29;20700;-50
2022/06/08 04:34:46;;;;;;;4.80;4.50;;;;;;;11.97;100.00;96732.19;4851204;29;20596;-56
2022/06/08 04:37:14;;;;;;;5.23;4.93;;;;;;;12.14;100.00;96722.81;4799439;29;20342;-50
2022/06/08 04:39:42;;;;;;;5.53;5.13;;;;;;;12.16;100.00;96727.94;4851890;29;20260;-55
2022/06/08 04:42:16;;;;;;;5.23;4.90;;;;;;;12.33;100.00;96719.53;4824309;29;20442;-53
2022/06/08 04:44:44;;;;;;;5.43;5.10;;;;;;;12.57;100.00;96721.53;4812926;29;20715;-57
2022/06/08 04:47:12;;;;;;;5.30;4.83;;;;;;;12.70;100.00;96722.53;4823718;29;20228;-51
2022/06/08 04:49:41;;;;;;;4.87;4.33;;;;;;;12.73;100.00;96716.78;4856554;29;20206;-51
2022/06/08 04:52:10;;;;;;;4.93;4.43;;;;;;;12.90;100.00;96709.16;4804691;29;21185;-51
2022/06/08 04:54:39;;;;;;;7.10;4.37;;;;;;;13.22;100.00;96703.09;4853317;29;20244;-55
2022/06/08 04:57:11;;;;;;;4.30;4.00;;;;;;;13.32;100.00;96709.59;4833416;29;20818;-50
2022/06/08 04:59:40;;;;;;;4.30;4.00;;;;;;;13.50;100.00;96707.28;4840904;29;20220;-54
2022/06/08 05:02:09;;;;;;;4.63;4.23;;;;;;;13.66;100.00;96704.09;4840052;29;20313;-47
2022/06/08 05:04:37;;;;;;;4.27;4.07;;;;;;;13.69;100.00;96698.34;4845001;29;20237;-53
2022/06/08 05:07:07;;;;;;;4.07;3.80;;;;;;;13.91;100.00;96692.63;4807141;29;20257;-47
2022/06/08 05:09:37;;;;;;;4.40;4.10;;;;;;;14.00;100.00;96696.66;4848069;29;20313;-50
2022/06/08 05:12:06;;;;;;;4.43;4.13;;;;;;;14.00;100.00;96704.66;4829562;29;20250;-51
2022/06/08 05:14:35;;;;;;;4.17;3.87;;;;;;;14.22;100.00;96693.59;4843811;29;20240;-55
2022/06/08 05:17:10;;;;;;;3.57;3.37;;;;;;;14.36;100.00;96691.63;4838439;29;20238;-52
2022/06/08 05:19:38;;;;;;;4.20;3.90;;;;;;;14.39;100.00;96687.69;4813599;29;20792;-57
2022/06/08 05:22:07;;;;;;;4.93;4.53;;;;;;;14.61;100.00;96701.44;4814519;29;20241;-56
2022/06/08 05:24:37;;;;;;;3.17;3.07;;;;;;;14.65;100.00;96697.28;4828545;29;20765;-54
2022/06/08 05:27:06;;;;;;;4.23;4.03;;;;;;;14.65;100.00;96694.63;4818715;29;20673;-58
2022/06/08 05:29:34;;;;;;;4.23;3.97;;;;;;;14.65;100.00;96691.13;4841681;29;20218;-59
2022/06/08 05:32:03;;;;;;;4.43;4.13;;;;;;;14.75;100.00;96694.94;4837600;29;20888;-58
2022/06/08 05:34:31;;;;;;;6.53;3.70;;;;;;;15.01;100.00;96687.66;4831992;29;20802;-54
2022/06/08 05:36:59;;;;;;;3.50;3.30;;;;;;;15.01;100.00;96698.34;4808411;29;21096;-54
2022/06/08 05:39:27;;;;;;;3.97;3.77;;;;;;;15.04;100.00;96702.41;4857104;29;20465;-56
2022/06/08 05:41:57;;;;;;;4.13;3.93;;;;;;;15.04;100.00;96691.72;4834397;29;20273;-55
2022/06/08 05:44:25;;;;;;;4.57;4.20;;;;;;;14.98;100.00;96685.47;4837704;29;20213;-54
2022/06/08 05:46:53;;;;;;;4.10;3.80;;;;;;;14.90;100.00;96688.41;4820202;29;20973;-50
2022/06/08 05:49:22;;;;;;;4.00;3.57;;;;;;;15.09;100.00;96688.41;4836335;29;20679;-58
2022/06/08 05:51:50;;;;;;;3.50;3.30;;;;;;;15.16;100.00;96678.44;4818404;29;20623;-51
2022/06/08 05:54:18;;;;;;;4.03;3.80;;;;;;;15.47;100.00;96688.06;4847056;29;20983;-58
2022/06/08 05:56:46;;;;;;;4.20;3.85;;;;;;;15.73;100.00;96690.59;4822468;29;20485;-56
2022/06/08 05:59:16;;;;;;;3.30;3.10;;;;;;;15.97;100.00;96688.81;4833003;29;20241;-57
2022/06/08 06:01:44;;;;;;;3.77;3.47;;;;;;;16.06;100.00;96686.56;4835353;29;20594;-53
2022/06/08 06:04:13;;;;;;;3.50;3.27;;;;;;;16.06;100.00;96679.38;4845471;29;20240;-58
2022/06/08 06:06:45;;;;;;;3.33;3.00;;;;;;;16.04;100.00;96672.63;4836516;29;20356;-55
2022/06/08 06:09:15;;;;;;;3.63;3.30;;;;;;;16.29;100.00;96683.13;4809905;29;20608;-58
2022/06/08 06:11:43;;;;;;;3.37;3.17;;;;;;;16.33;100.00;96680.78;4852169;29;20306;-56
2022/06/08 06:14:11;;;;;;;3.63;3.33;;;;;;;16.39;100.00;96676.38;4837295;29;20309;-57
2022/06/08 06:16:41;;;;;;;3.13;2.93;;;;;;;16.61;100.00;96685.41;4832778;29;20229;-54
2022/06/08 06:19:09;;;;;;;2.87;2.67;;;;;;;16.94;100.00;96680.47;4839177;29;20225;-58
2022/06/08 06:21:37;;;;;;;3.40;3.20;;;;;;;16.86;100.00;96678.16;4829844;29;20241;-50
2022/06/08 06:24:06;;;;;;;3.00;2.90;;;;;;;16.66;100.00;96679.34;4810813;29;21240;-57
2022/06/08 06:26:40;;;;;;;2.70;2.50;;;;;;;16.31;100.00;96677.53;4851782;29;20217;-54
2022/06/08 06:29:10;;;;;;;2.70;2.50;;;;;;;16.71;100.00;96674.09;4835188;29;20224;-58
2022/06/08 06:31:43;;;;;;;2.37;2.27;;;;;;;16.85;100.00;96671.97;4834463;29;20249;-49
2022/06/08 06:34:12;;;;;;;2.20;2.10;;;;;;;17.09;100.00;96660.41;4840730;29;20313;-52
2022/06/08 06:36:41;;;;;;;2.40;2.30;;;;;;;17.13;100.00;96656.22;4836102;29;20226;-57
2022/06/08 06:39:09;;;;;;;2.70;2.50;;;;;;;17.32;100.00;96656.81;4849356;29;20273;-57
2022/06/08 06:41:38;;;;;;;2.43;1.83;;;;;;;17.60;100.00;96660.53;4807499;29;20732;-53
2022/06/08 06:44:06;;;;;;;2.43;2.33;;;;;;;17.53;100.00;96662.56;4834664;29;20222;-55
2022/06/08 06:46:34;;;;;;;4.25;2.67;;;;;;;17.91;100.00;96658.34;4846069;29;20502;-50
2022/06/08 06:49:04;;;;;;;2.00;1.90;;;;;;;17.46;100.00;96668.88;4843850;29;20419;-56
2022/06/08 06:51:34;;;;;;;2.40;2.30;;;;;;;17.56;100.00;96670.09;4842059;29;20554;-51
2022/06/08 06:54:02;;;;;;;2.60;2.50;;;;;;;18.05;100.00;96662.34;4830667;29;20328;-58
2022/06/08 07:00:12;;;;;;;2.10;2.00;;;;;;;19.49;100.00;96665.22;4831694;29;20757;-56
2022/06/08 07:02:41;;;;;;;2.13;2.03;;;;;;;19.92;100.00;96659.97;4832999;29;20722;-54
2022/06/08 07:05:12;;;;;;;2.65;2.20;;;;;;;20.00;100.00;96650.59;4851436;29;20549;-53
2022/06/08 07:07:40;;;;;;;1.93;1.83;;;;;;;20.35;100.00;96651.13;4831859;29;20805;-56
2022/06/08 07:10:09;;;;;;;1.87;1.77;;;;;;;20.29;100.00;96652.16;4823175;29;20224;-54
2022/06/08 07:12:37;;;;;;;3.10;2.10;;;;;;;19.88;100.00;96656.13;4807710;29;20328;-55
2022/06/08 07:15:06;;;;;;;2.30;1.87;;;;;;;19.45;100.00;96645.31;4852379;29;20667;-53
2022/06/08 07:17:38;;;;;;;2.63;1.90;;;;;;;19.28;100.00;96650.78;4825619;29;20297;-55
2022/06/08 07:20:09;;;;;;;2.93;2.10;;;;;;;18.88;100.00;96649.25;4832558;29;20279;-55
2022/06/08 07:22:39;;;;;;;3.00;2.78;;;;;;;18.37;100.00;96642.97;4833078;29;20536;-55
2022/06/08 07:25:09;;;;;;;2.00;1.87;;;;;;;17.89;100.00;96637.16;4828548;29;20249;-56
2022/06/08 07:27:37;;;;;;;2.67;2.03;;;;;;;18.16;100.00;96646.41;4801242;29;22135;-57
2022/06/08 07:30:07;;;;;;;1.93;1.83;;;;;;;17.80;100.00;96641.31;4852719;29;20467;-57
2022/06/08 07:32:35;;;;;;;2.00;1.90;;;;;;;18.51;100.00;96642.59;4826336;29;20603;-55
2022/06/08 07:35:05;;;;;;;2.23;2.10;;;;;;;19.31;100.00;96641.38;4834373;29;20217;-57
2022/06/08 07:37:33;;;;;;;2.33;2.00;;;;;;;20.01;100.00;96636.09;4833965;29;20541;-54
2022/06/08 07:40:03;;;;;;;4.50;2.20;;;;;;;20.34;100.00;96636.84;4848848;29;20467;-57
2022/06/08 07:42:31;;;;;;;3.03;2.03;;;;;;;20.39;100.00;96636.06;4825057;29;21062;-56
2022/06/08 07:45:00;;;;;;;1.77;1.67;;;;;;;20.56;100.00;96624.28;4811828;29;20226;-57
2022/06/08 07:47:28;;;;;;;2.23;2.03;;;;;;;20.95;100.00;96632.84;4826705;29;20741;-53
2022/06/08 07:49:55;;;;;;;1.83;1.73;;;;;;;21.00;100.00;96634.72;4851969;29;20209;-56
2022/06/08 07:52:24;;;;;;;1.83;1.70;;;;;;;21.43;100.00;96631.06;4820061;29;20854;-51
2022/06/08 07:54:52;;;;;;;2.10;1.77;;;;;;;20.94;100.00;96625.00;4847274;29;20210;-57
2022/06/08 07:57:25;;;;;;;2.03;1.20;;;;;;;20.94;100.00;96612.38;4824412;29;20270;-57
2022/06/08 07:59:53;;;;;;;2.17;1.57;;;;;;;21.31;100.00;96613.25;4812970;29;20715;-59
2022/06/08 08:02:21;;;;;;;1.47;1.30;;;;;;;21.74;98.37;96613.03;4821042;29;20333;-58
2022/06/08 08:04:50;;;;;;;1.77;1.50;;;;;;;21.89;93.24;96608.69;4846848;29;20239;-58
2022/06/08 08:07:18;;;;;;;1.43;1.43;;;;;;;21.92;99.84;96602.75;4830916;29;20218;-55
2022/06/08 08:09:48;;;;;;;1.10;1.10;;;;;;;21.38;97.89;96613.78;4834088;29;20312;-57
2022/06/08 08:12:17;;;;;;;1.30;1.30;;;;;;;22.16;98.90;96605.72;4843084;29;20205;-49
2022/06/08 08:14:46;;;;;;;1.40;1.33;;;;;;;22.53;100.00;96604.53;4837933;29;20433;-54
2022/06/08 08:17:14;;;;;;;3.40;2.60;;;;;;;22.42;93.36;96600.22;4809463;29;20220;-54
2022/06/08 08:19:43;;;;;;;2.30;2.20;;;;;;;22.10;100.00;96596.00;4837908;29;20221;-57
2022/06/08 08:22:14;;;;;;;2.73;1.60;;;;;;;22.24;100.00;96585.44;4832622;29;20330;-57
2022/06/08 08:24:42;;;;;;;1.60;1.50;;;;;;;22.22;95.08;96593.81;4833748;29;21650;-54
2022/06/08 08:27:10;;;;;;;1.27;1.20;;;;;;;22.02;92.10;96583.06;4850545;29;20821;-55
2022/06/08 08:29:38;;;;;;;1.90;1.48;;;;;;;22.45;90.11;96585.41;4820611;29;20469;-56
2022/06/08 08:32:10;;;;;;;1.65;1.48;;;;;;;23.11;91.70;96578.88;4811737;29;21095;-52
2022/06/08 08:34:38;;;;;;;1.70;1.40;;;;;;;22.54;89.83;96573.78;4826547;29;20544;-53
2022/06/08 08:37:06;;;;;;;2.33;1.83;;;;;;;21.75;94.95;96579.59;4824824;29;20436;-52
2022/06/08 08:39:34;;;;;;;1.70;1.53;;;;;;;22.52;95.96;96575.13;4852297;29;20358;-58
2022/06/08 08:42:21;;;;;;;1.60;1.50;;;;;;;22.92;82.25;96572.50;4831767;29;20466;-54
2022/06/08 08:44:51;;;;;;;3.67;3.33;;;;;;;22.99;90.19;96556.81;4821637;29;20465;-58
2022/06/08 08:47:31;;;;;;;1.63;1.50;;;;;;;22.45;94.21;96563.81;4802499;29;20308;-55
2022/06/08 08:50:03;;;;;;;1.30;1.30;;;;;;;22.57;92.38;96560.81;4825774;29;20229;-55
2022/06/08 08:52:38;;;;;;;3.30;1.53;;;;;;;22.98;86.17;96566.78;4849519;29;20265;-56
2022/06/08 08:55:17;;;;;;;1.27;1.20;;;;;;;22.46;89.95;96568.94;4847431;29;20397;-54
2022/06/08 08:57:51;;;;;;;1.10;1.10;;;;;;;22.86;94.28;96562.81;4833683;29;20320;-55
2022/06/08 09:00:33;;;;;;;1.57;1.47;;;;;;;23.01;84.65;96565.44;4827590;29;20221;-53
2022/06/08 09:03:18;;;;;;;1.50;1.40;;;;;;;23.37;84.99;96553.59;4807087;29;20693;-56
2022/06/08 09:05:48;;;;;;;1.27;1.20;;;;;;;23.79;79.86;96545.94;4827632;29;20226;-57
2022/06/08 09:08:17;;;;;;;3.70;1.37;;;;;;;23.35;71.20;96548.47;4846399;29;20226;-57
2022/06/08 09:10:51;;;;;;;1.50;1.40;;;;;;;23.42;72.64;96540.03;4846790;29;20229;-54
2022/06/08 09:13:24;;;;;;;1.57;1.40;;;;;;;23.32;83.21;96540.94;4832921;29;20323;-54
2022/06/08 09:15:54;;;;;;;1.90;1.07;;;;;;;22.33;82.97;96545.22;4819994;29;20210;-56
2022/06/08 09:18:35;;;;;;;1.30;1.30;;;;;;;22.63;89.34;96540.81;4806057;29;20786;-53
2022/06/08 09:21:26;;;;;;;1.73;1.23;;;;;;;22.71;89.39;96540.22;4827220;29;20214;-55
2022/06/08 09:23:56;;;;;;;1.43;1.33;;;;;;;22.26;87.03;96540.94;4844543;29;20308;-55
2022/06/08 09:26:31;;;;;;;2.67;1.10;;;;;;;21.81;95.26;96532.69;4848479;29;20248;-54
2022/06/08 09:29:01;;;;;;;2.40;1.20;;;;;;;22.38;91.64;96523.59;4802872;29;20220;-54
2022/06/08 09:31:31;;;;;;;3.13;2.87;;;;;;;22.38;89.43;96519.03;4851082;29;20336;-51
2022/06/08 09:34:07;;;;;;;1.83;1.73;;;;;;;22.16;85.43;96523.97;4803247;29;20310;-56
2022/06/08 09:36:36;;;;;;;3.83;1.70;;;;;;;22.32;84.00;96516.63;4827264;29;20316;-58
2022/06/08 09:39:04;;;;;;;2.00;1.50;;;;;;;22.20;80.38;96509.66;4849074;29;20237;-55
2022/06/08 09:41:38;;;;;;;3.73;1.60;;;;;;;22.34;82.98;96514.47;4849905;29;20268;-53
2022/06/08 09:44:27;;;;;;;1.80;1.70;;;;;;;22.58;71.84;96511.16;4831238;29;20222;-53
2022/06/08 09:53:03;;;;;;;1.60;1.50;;;;;;;22.27;93.58;96498.56;4825520;29;20234;-53
2022/06/08 09:55:41;;;;;;;1.60;1.50;;;;;;;22.54;94.46;96494.69;4848219;29;20702;-56
2022/06/08 09:58:18;;;;;;;1.97;1.83;;;;;;;22.51;92.31;96496.03;4843314;29;20237;-57
2022/06/08 10:00:57;;;;;;;1.70;1.30;;;;;;;22.03;89.31;96495.69;4806258;29;20309;-54
2022/06/08 10:03:40;;;;;;;1.97;1.30;;;;;;;22.40;87.50;96494.44;4850157;29;20559;-56
2022/06/08 10:06:17;;;;;;;0.90;0.90;;;;;;;22.95;84.64;96486.31;4804086;29;20942;-55
2022/06/08 10:08:52;;;;;;;2.00;1.90;;;;;;;22.80;84.66;96489.16;4852093;29;20221;-53
2022/06/08 10:11:36;;;;;;;2.23;1.63;;;;;;;22.78;88.78;96484.00;4853031;29;20220;-57
2022/06/08 10:14:15;;;;;;;1.33;1.23;;;;;;;22.94;79.89;96484.72;4848265;29;20305;-53
2022/06/08 10:16:48;;;;;;;1.73;1.33;;;;;;;22.96;88.70;96481.75;4809018;29;20263;-56
2022/06/08 10:19:21;;;;;;;1.83;1.70;;;;;;;22.92;87.34;96470.69;4812022;29;20229;-53
2022/06/08 10:21:51;;;;;;;2.67;1.77;;;;;;;22.54;81.71;96460.41;4833682;29;20546;-53
2022/06/08 10:24:23;;;;;;;1.57;1.47;;;;;;;23.24;86.58;96455.03;4849287;29;20304;-56
2022/06/08 10:26:57;;;;;;;1.50;1.40;;;;;;;23.51;80.98;96456.44;4849474;29;20304;-56
2022/06/08 10:29:34;;;;;;;7.50;1.40;;;;;;;23.33;79.79;96450.66;4854725;29;20217;-54
2022/06/08 10:32:08;;;;;;;3.07;1.30;;;;;;;23.49;83.27;96456.72;4807115;29;20329;-57
2022/06/08 10:34:37;;;;;;;2.07;1.13;;;;;;;23.11;79.63;96451.91;4849936;29;20302;-56
2022/06/08 10:37:11;;;;;;;1.33;1.20;;;;;;;23.10;83.12;96441.34;4792659;29;20618;-48
2022/06/08 10:39:39;;;;;;;1.50;1.40;;;;;;;22.43;80.39;96458.03;4855320;29;20325;-56
2022/06/08 10:45:36;;;;;;;1.43;1.00;;;;;;;22.64;77.82;96439.84;4841188;29;20408;-54
2022/06/08 10:48:28;;;;;;;1.67;1.17;;;;;;;22.91;78.82;96441.25;4808930;29;21086;-59
2022/06/08 10:51:37;;;;;;;1.97;1.00;;;;;;;22.63;82.87;96443.63;4808192;29;21437;-56
2022/06/08 10:57:41;;;;;;;1.27;0.90;;;;;;;22.96;76.00;96431.22;4827190;29;20225;-55
2022/06/08 11:00:24;;;;;;;1.80;1.10;;;;;;;23.54;80.08;96426.13;4853694;29;20812;-54
2022/06/08 11:02:56;;;;;;;3.40;1.30;;;;;;;23.83;66.89;96425.28;4819009;29;20694;-52
2022/06/08 11:05:32;;;;;;;1.10;1.10;;;;;;;23.62;66.02;96425.50;4853673;29;20228;-56
2022/06/08 11:08:16;;;;;;;1.50;1.40;;;;;;;23.34;61.38;96419.03;4815964;29;20225;-53
2022/06/08 11:11:00;;;;;;;1.50;1.40;;;;;;;23.37;70.60;96418.44;4837971;29;20281;-57
2022/06/08 11:13:35;;;;;;;1.90;1.30;;;;;;;23.32;63.97;96411.22;4834452;29;20217;-57
2022/06/08 11:16:11;;;;;;;2.00;1.37;;;;;;;24.01;79.90;96414.78;4836742;29;20298;-55
2022/06/08 11:18:43;;;;;;;1.83;1.67;;;;;;;23.83;67.55;96409.84;4820465;29;20502;-56
2022/06/08 11:21:24;;;;;;;2.97;1.37;;;;;;;24.37;71.00;96411.63;4855519;29;20670;-56
2022/06/08 11:23:55;;;;;;;1.90;1.80;;;;;;;24.38;73.31;96415.94;4815256;29;20219;-61
2022/06/08 11:26:47;;;;;;;2.60;1.60;;;;;;;24.19;67.81;96413.22;4837439;29;20240;-60
2022/06/08 11:29:45;;;;;;;1.33;1.23;;;;;;;25.07;73.83;96401.91;4838025;29;20218;-56
2022/06/08 11:32:27;;;;;;;2.13;1.53;;;;;;;24.59;71.06;96404.81;4837768;29;20333;-50
2022/06/08 11:35:09;;;;;;;2.17;2.03;;;;;;;24.84;67.28;96393.63;4830304;29;20219;-54
2022/06/08 11:37:45;;;;;;;1.60;1.17;;;;;;;25.48;56.72;96396.88;4794140;29;20890;-55
2022/06/08 11:40:15;;;;;;;1.47;1.10;;;;;;;25.47;57.89;96395.25;4835911;29;20239;-57
2022/06/08 11:42:50;;;;;;;1.43;1.33;;;;;;;25.38;55.32;96390.50;4848036;29;20237;-51
2022/06/08 11:45:21;;;;;;;2.07;1.60;;;;;;;25.30;57.57;96383.09;4839403;29;20216;-54
2022/06/08 11:47:53;;;;;;;1.00;1.00;;;;;;;25.71;54.26;96393.16;4843089;29;20317;-49
2022/06/08 11:50:24;;;;;;;3.00;1.93;;;;;;;25.80;50.03;96382.44;4823065;29;20297;-57
2022/06/08 11:52:59;;;;;;;2.27;1.20;;;;;;;26.09;50.17;96386.69;4837144;29;20241;-59
2022/06/08 11:55:30;;;;;;;1.90;1.47;;;;;;;26.03;54.19;96373.56;4799691;29;21013;-58
2022/06/08 11:58:09;;;;;;;4.27;1.70;;;;;;;26.54;51.70;96379.78;4854434;29;20317;-55
2022/06/08 12:00:51;;;;;;;1.93;1.37;;;;;;;25.44;54.24;96370.31;4835956;29;20314;-57
2022/06/08 12:03:26;;;;;;;2.37;1.23;;;;;;;25.32;50.38;96377.34;4834385;29;20750;-57
2022/06/08 12:06:03;;;;;;;1.97;1.80;;;;;;;25.32;51.71;96375.44;4830120;29;20217;-57
2022/06/08 12:08:35;;;;;;;1.43;1.00;;;;;;;25.51;51.66;96364.53;4802371;29;20334;-57
2022/06/08 12:11:22;;;;;;;1.23;1.13;;;;;;;25.77;49.13;96369.47;4831560;29;20221;-55